createdAt,value
2023-03-25T00:03:31.452Z,58.5
2023-03-25T00:09:07.983Z,58.5
2023-03-25T00:14:28.537Z,58.4
2023-03-25T00:20:20.866Z,58.4
2023-03-25T00:25:41.487Z,58.3
2023-03-25T00:31:17.853Z,58.3
2023-03-25T00:36:54.905Z,58.3
2023-03-25T00:42:46.467Z,58.2
2023-03-25T00:48:23.747Z,58.1
2023-03-25T00:54:10.180Z,58.1
2023-03-25T01:00:01.628Z,58.1
2023-03-25T01:05:55.110Z,58
2023-03-25T01:11:31.466Z,57.9
2023-03-25T01:17:08.047Z,57.9
2023-03-25T01:22:44.949Z,57.9
2023-03-25T01:28:37.026Z,57.8
2023-03-25T01:39:49.639Z,57.7
2023-03-25T01:45:21.304Z,57.7
2023-03-25T01:50:57.789Z,57.6
2023-03-25T01:56:49.077Z,57.6
2023-03-25T02:02:25.644Z,57.5
2023-03-25T02:08:02.034Z,57.5
2023-03-25T02:13:38.264Z,57.4
2023-03-25T02:19:30.617Z,57.4
2023-03-25T02:25:22.091Z,57.3
2023-03-25T02:30:57.656Z,57.3
2023-03-25T02:36:49.756Z,57.3
2023-03-25T02:42:25.832Z,57.2
2023-03-25T02:48:02.116Z,57.1
2023-03-25T02:53:54.042Z,57.1
2023-03-25T02:59:45.165Z,57.1
2023-03-25T03:05:37.007Z,57
2023-03-25T03:10:57.504Z,56.9
2023-03-25T03:16:33.375Z,56.9
2023-03-25T03:22:25.653Z,56.9
2023-03-25T03:28:17.538Z,56.8
2023-03-25T03:34:55.854Z,56.8
2023-03-25T03:40:47.289Z,56.8
2023-03-25T03:46:23.945Z,56.7
2023-03-25T03:52:15.396Z,56.6
2023-03-25T03:57:52.308Z,56.6
2023-03-25T04:03:44.202Z,56.5
2023-03-25T04:09:19.727Z,56.5
2023-03-25T04:15:11.280Z,56.4
2023-03-25T04:20:50.317Z,56.4
2023-03-25T04:26:26.465Z,56.4
2023-03-25T04:32:02.985Z,56.3
2023-03-25T04:37:54.785Z,56.3
2023-03-25T04:43:46.182Z,56.3
2023-03-25T04:49:06.832Z,56.2
2023-03-25T04:54:58.731Z,56.1
2023-03-25T05:00:50.781Z,56.1
2023-03-25T05:06:42.829Z,56
2023-03-25T05:12:33.942Z,55.9
2023-03-25T05:18:25.754Z,55.9
2023-03-25T05:24:02.181Z,55.9
2023-03-25T05:29:53.561Z,55.8
2023-03-25T05:35:46.537Z,55.8
2023-03-25T05:41:38.997Z,55.8
2023-03-25T05:47:15.887Z,55.7
2023-03-25T05:53:06.692Z,55.6
2023-03-25T05:59:03.030Z,55.6
2023-03-25T06:05:11.026Z,55.5
2023-03-25T06:11:01.768Z,55.4
2023-03-25T06:16:53.563Z,55.4
2023-03-25T06:22:44.879Z,55.4
2023-03-25T06:28:36.546Z,55.3
2023-03-25T06:34:49.482Z,55.3
2023-03-25T06:40:40.797Z,55.2
2023-03-25T06:46:17.003Z,55.2
2023-03-25T06:51:53.197Z,55.1
2023-03-25T06:57:45.055Z,55.1
2023-03-25T07:03:36.343Z,55
2023-03-25T07:09:29.630Z,55
2023-03-25T07:15:21.954Z,54.9
2023-03-25T07:21:19.693Z,54.9
2023-03-25T07:27:11.785Z,54.8
2023-03-25T07:33:04.466Z,54.8
2023-03-25T07:38:57.268Z,54.7
2023-03-25T07:44:51.100Z,54.6
2023-03-25T07:50:47.675Z,54.6
2023-03-25T07:56:40.879Z,54.5
2023-03-25T08:02:35.082Z,54.4
2023-03-25T08:08:29.384Z,54.4
2023-03-25T08:14:23.395Z,54.3
2023-03-25T08:20:15.876Z,54.3
2023-03-25T08:25:54.454Z,54.3
2023-03-25T08:31:47.228Z,54.3
2023-03-25T08:37:38.771Z,54.5
2023-03-25T08:43:15.049Z,54.5
2023-03-25T08:48:50.958Z,54.5
2023-03-25T08:54:10.839Z,54.5
2023-03-25T09:00:02.358Z,54.7
2023-03-25T09:05:58.035Z,55.2
2023-03-25T09:12:09.669Z,55.8
2023-03-25T09:18:02.059Z,56.5
2023-03-25T09:23:55.660Z,57.3
2023-03-25T09:29:48.196Z,57.5
2023-03-25T09:41:17.576Z,58.4
2023-03-25T09:47:15.014Z,59.2
2023-03-25T09:53:08.756Z,59.6
2023-03-25T09:59:01.006Z,59.8
2023-03-25T10:04:38.265Z,59.9
2023-03-25T10:09:59.554Z,60.1
2023-03-25T10:15:53.913Z,60.4
2023-03-25T10:21:45.747Z,60.6
2023-03-25T10:27:37.343Z,60.7
2023-03-25T10:33:29.614Z,60.7
2023-03-25T10:39:22.538Z,60.9
2023-03-25T10:45:14.716Z,61.4
2023-03-25T10:51:06.768Z,62.1
2023-03-25T10:56:58.373Z,63.1
2023-03-25T11:02:50.662Z,64.2
2023-03-25T11:08:56.842Z,65.1
2023-03-25T11:15:00.501Z,66
2023-03-25T11:20:41.085Z,66.6
2023-03-25T11:26:32.860Z,67.1
2023-03-25T11:32:24.621Z,67.3
2023-03-25T11:38:16.994Z,67.7
2023-03-25T11:44:09.266Z,67.8
2023-03-25T11:49:29.984Z,67.8
2023-03-25T11:55:06.296Z,67.8
2023-03-25T12:00:58.401Z,67.7
2023-03-25T12:06:20.291Z,67.7
2023-03-25T12:11:59.105Z,67.6
2023-03-25T12:17:51.600Z,67.6
2023-03-25T12:23:44.331Z,67.6
2023-03-25T12:29:20.392Z,67.5
2023-03-25T12:35:12.771Z,67.4
2023-03-25T12:41:21.380Z,67.4
2023-03-25T12:47:13.436Z,67.4
2023-03-25T12:52:52.805Z,67.3
2023-03-25T12:58:13.849Z,67.3
2023-03-25T13:04:07.646Z,67.2
2023-03-25T13:09:59.180Z,67.1
2023-03-25T13:15:59.221Z,67.1
2023-03-25T13:21:41.990Z,67.1
2023-03-25T13:27:33.860Z,66.9
2023-03-25T13:33:26.887Z,66.9
2023-03-25T13:39:03.725Z,66.9
2023-03-25T13:44:58.694Z,66.8
2023-03-25T13:50:20.843Z,66.8
2023-03-25T13:56:14.191Z,66.7
2023-03-25T14:02:06.897Z,66.6
2023-03-25T14:08:01.254Z,66.6
2023-03-25T14:13:53.450Z,66.6
2023-03-25T14:19:15.131Z,66.5
2023-03-25T14:24:55.763Z,66.4
2023-03-25T14:30:47.569Z,66.4
2023-03-25T14:36:41.472Z,66.3
2023-03-25T14:42:30.448Z,66.3
2023-03-25T14:48:12.989Z,66.2
2023-03-25T14:53:58.341Z,66.1
2023-03-25T14:59:51.797Z,66.1
2023-03-25T15:05:45.758Z,66
2023-03-25T15:11:21.815Z,66
2023-03-25T15:17:13.469Z,65.9
2023-03-25T15:23:05.897Z,65.9
2023-03-25T15:28:57.661Z,65.8
2023-03-25T15:34:49.539Z,65.8
2023-03-25T15:40:52.652Z,65.7
2023-03-25T15:46:56.546Z,65.6
2023-03-25T15:52:48.594Z,65.6
2023-03-25T15:58:45.542Z,65.5
2023-03-25T16:04:37.086Z,65.4
2023-03-25T16:10:28.623Z,65.4
2023-03-25T16:16:20.093Z,65.3
2023-03-25T16:21:41.427Z,65.3
2023-03-25T16:27:35.395Z,65.3
2023-03-25T16:33:14.198Z,65.2
2023-03-25T16:38:49.976Z,65.1
2023-03-25T16:44:26.237Z,65.1
2023-03-25T16:50:04.106Z,65
2023-03-25T16:55:39.484Z,64.9
2023-03-25T17:01:32.099Z,64.9
2023-03-25T17:07:25.174Z,64.9
2023-03-25T17:13:16.113Z,64.8
2023-03-25T17:18:55.808Z,64.8
2023-03-25T17:24:32.957Z,64.7
2023-03-25T17:30:24.808Z,64.6
2023-03-25T17:36:18.456Z,64.6
2023-03-25T17:41:54.922Z,64.5
2023-03-25T17:47:48.559Z,64.4
2023-03-25T17:53:39.465Z,64.4
2023-03-25T17:59:30.979Z,64.3
2023-03-25T18:05:23.576Z,64.3
2023-03-25T18:11:14.650Z,64.2
2023-03-25T18:17:06.021Z,64.2
2023-03-25T18:22:54.640Z,64.1
2023-03-25T18:28:46.434Z,64.1
2023-03-25T18:34:37.879Z,64
2023-03-25T18:40:29.854Z,63.9
2023-03-25T18:46:05.402Z,63.9
2023-03-25T18:51:57.137Z,63.9
2023-03-25T18:57:32.396Z,63.8
2023-03-25T19:03:24.852Z,63.8
2023-03-25T19:09:30.125Z,63.7
2023-03-25T19:15:33.825Z,63.6
2023-03-25T19:21:33.850Z,63.6
2023-03-25T19:27:24.990Z,63.5
2023-03-25T19:33:17.288Z,63.4
2023-03-25T19:39:09.937Z,63.4
2023-03-25T19:44:47.166Z,63.3
2023-03-25T19:50:38.313Z,63.3
2023-03-25T19:56:14.682Z,63.2
2023-03-25T20:02:06.705Z,63.1
2023-03-25T20:07:43.757Z,63.1
2023-03-25T20:13:44.803Z,63
2023-03-25T20:19:21.435Z,62.9
2023-03-25T20:24:56.670Z,62.9
2023-03-25T20:30:17.500Z,62.9
2023-03-25T20:36:20.516Z,62.8
2023-03-25T20:42:28.477Z,62.8
2023-03-25T20:48:19.636Z,62.7
2023-03-25T20:54:11.567Z,62.6
2023-03-25T21:00:04.403Z,62.6
2023-03-25T21:05:40.454Z,62.6
2023-03-25T21:11:44.661Z,62.4
2023-03-25T21:17:46.683Z,62.4
2023-03-25T21:23:40.740Z,62.4
2023-03-25T21:29:19.013Z,62.3
2023-03-25T21:35:13.741Z,62.1
2023-03-25T21:41:12.384Z,62
2023-03-25T21:47:13.761Z,61.9
2023-03-25T21:53:08.204Z,61.8
2023-03-25T21:58:29.117Z,61.8
2023-03-25T22:03:51.071Z,61.8
2023-03-25T22:09:42.826Z,61.7
2023-03-25T22:15:33.588Z,61.6
2023-03-25T22:21:26.317Z,61.6
2023-03-25T22:27:20.665Z,61.5
2023-03-25T22:32:56.507Z,61.4
2023-03-25T22:38:48.189Z,61.4
2023-03-25T22:44:24.449Z,61.3
2023-03-25T22:50:16.862Z,61.2
2023-03-25T22:56:09.851Z,61.2
2023-03-25T23:02:02.070Z,61.1
2023-03-25T23:07:33.542Z,61.1
2023-03-25T23:13:09.581Z,61
2023-03-25T23:19:02.886Z,60.9
2023-03-25T23:24:42.596Z,60.9
2023-03-25T23:30:34.196Z,60.8
2023-03-25T23:36:26.646Z,60.7
2023-03-25T23:42:02.473Z,60.6
2023-03-25T23:47:55.325Z,60.6
2023-03-25T23:53:15.770Z,60.6
2023-03-25T23:58:51.771Z,60.5
